sensor_id;sensor_type;location;lat;lon;timestamp;pressure;altitude;pressure_sealevel;temperature;humidity
17254;BME280;32542;52.832;13.816;2023-04-24T00:01:03;100312.53;;;21.88;49.19
17254;BME280;32542;52.832;13.816;2023-04-24T00:04:09;100311.66;;;21.87;49.23
17254;BME280;32542;52.832;13.816;2023-04-24T00:07:15;100303.66;;;21.87;49.26
17254;BME280;32542;52.832;13.816;2023-04-24T00:10:20;100301.84;;;21.88;49.19
17254;BME280;32542;52.832;13.816;2023-04-24T00:13:23;100290.34;;;21.87;49.18
17254;BME280;32542;52.832;13.816;2023-04-24T00:16:26;100298.44;;;21.86;49.18
17254;BME280;32542;52.832;13.816;2023-04-24T00:19:29;100287.88;;;21.84;49.21
17254;BME280;32542;52.832;13.816;2023-04-24T00:22:32;100279.88;;;21.84;49.09
17254;BME280;32542;52.832;13.816;2023-04-24T00:25:37;100279.00;;;21.84;49.25
17254;BME280;32542;52.832;13.816;2023-04-24T00:28:40;100266.53;;;21.84;49.31
17254;BME280;32542;52.832;13.816;2023-04-24T00:31:42;100269.09;;;21.86;49.26
17254;BME280;32542;52.832;13.816;2023-04-24T00:34:45;100252.16;;;21.87;49.24
17254;BME280;32542;52.832;13.816;2023-04-24T00:37:48;100238.91;;;21.85;49.23
17254;BME280;32542;52.832;13.816;2023-04-24T00:40:52;100236.16;;;21.87;49.18
17254;BME280;32542;52.832;13.816;2023-04-24T00:43:56;100237.03;;;21.87;49.12
17254;BME280;32542;52.832;13.816;2023-04-24T00:46:59;100242.34;;;21.87;49.19
17254;BME280;32542;52.832;13.816;2023-04-24T00:50:03;100233.59;;;21.85;49.18
17254;BME280;32542;52.832;13.816;2023-04-24T00:53:06;100226.56;;;21.84;49.24
17254;BME280;32542;52.832;13.816;2023-04-24T00:56:11;100219.63;;;21.80;49.13
17254;BME280;32542;52.832;13.816;2023-04-24T00:59:16;100219.75;;;21.78;49.17
17254;BME280;32542;52.832;13.816;2023-04-24T01:02:19;100217.19;;;21.77;49.12
17254;BME280;32542;52.832;13.816;2023-04-24T01:05:22;100219.84;;;21.77;49.17
17254;BME280;32542;52.832;13.816;2023-04-24T01:08:26;100211.84;;;21.77;49.09
17254;BME280;32542;52.832;13.816;2023-04-24T01:11:32;100211.75;;;21.78;48.99
17254;BME280;32542;52.832;13.816;2023-04-24T01:14:35;100215.19;;;21.81;48.97
17254;BME280;32542;52.832;13.816;2023-04-24T01:17:37;100210.72;;;21.81;48.99
17254;BME280;32542;52.832;13.816;2023-04-24T01:20:42;100208.97;;;21.80;48.97
17254;BME280;32542;52.832;13.816;2023-04-24T01:24:00;100208.97;;;21.80;48.86
17254;BME280;32542;52.832;13.816;2023-04-24T01:27:03;100200.22;;;21.78;49.00
17254;BME280;32542;52.832;13.816;2023-04-24T01:30:07;100196.78;;;21.76;49.08
17254;BME280;32542;52.832;13.816;2023-04-24T01:33:10;100195.97;;;21.75;49.01
17254;BME280;32542;52.832;13.816;2023-04-24T01:36:13;100202.31;;;21.73;48.99
17254;BME280;32542;52.832;13.816;2023-04-24T01:39:18;100197.94;;;21.72;49.03
17254;BME280;32542;52.832;13.816;2023-04-24T01:42:22;100199.78;;;21.71;49.13
17254;BME280;32542;52.832;13.816;2023-04-24T01:45:25;100196.13;;;21.72;49.09
17254;BME280;32542;52.832;13.816;2023-04-24T01:48:28;100192.53;;;21.73;49.02
17254;BME280;32542;52.832;13.816;2023-04-24T01:51:31;100187.22;;;21.73;48.99
17254;BME280;32542;52.832;13.816;2023-04-24T01:54:35;100188.91;;;21.74;48.93
17254;BME280;32542;52.832;13.816;2023-04-24T01:57:39;100181.88;;;21.73;48.92
17254;BME280;32542;52.832;13.816;2023-04-24T02:00:42;100172.91;;;21.74;48.92
17254;BME280;32542;52.832;13.816;2023-04-24T02:03:45;100181.00;;;21.73;49.04
17254;BME280;32542;52.832;13.816;2023-04-24T02:06:48;100182.91;;;21.71;48.90
17254;BME280;32542;52.832;13.816;2023-04-24T02:09:52;100182.91;;;21.71;48.88
17254;BME280;32542;52.832;13.816;2023-04-24T02:12:55;100160.06;;;21.67;48.99
17254;BME280;32542;52.832;13.816;2023-04-24T02:15:58;100168.06;;;21.67;48.98
17254;BME280;32542;52.832;13.816;2023-04-24T02:19:01;100172.44;;;21.68;49.01
17254;BME280;32542;52.832;13.816;2023-04-24T02:22:04;100162.72;;;21.67;48.97
17254;BME280;32542;52.832;13.816;2023-04-24T02:25:10;100153.22;;;21.63;48.99
17254;BME280;32542;52.832;13.816;2023-04-24T02:28:13;100149.59;;;21.64;49.01
17254;BME280;32542;52.832;13.816;2023-04-24T02:31:16;100145.00;;;21.66;48.91
17254;BME280;32542;52.832;13.816;2023-04-24T02:34:19;100136.09;;;21.67;48.91
17254;BME280;32542;52.832;13.816;2023-04-24T02:37:21;100143.88;;;21.70;48.74
17254;BME280;32542;52.832;13.816;2023-04-24T02:40:26;100140.28;;;21.71;48.82
17254;BME280;32542;52.832;13.816;2023-04-24T02:43:28;100137.69;;;21.69;48.73
17254;BME280;32542;52.832;13.816;2023-04-24T02:46:32;100134.19;;;21.69;48.75
17254;BME280;32542;52.832;13.816;2023-04-24T02:49:34;100129.78;;;21.68;48.74
17254;BME280;32542;52.832;13.816;2023-04-24T02:52:37;100140.44;;;21.68;48.73
17254;BME280;32542;52.832;13.816;2023-04-24T02:55:41;100136.84;;;21.69;48.70
17254;BME280;32542;52.832;13.816;2023-04-24T02:58:44;100136.47;;;21.61;48.93
17254;BME280;32542;52.832;13.816;2023-04-24T03:01:47;100134.84;;;21.58;48.96
17254;BME280;32542;52.832;13.816;2023-04-24T03:04:50;100136.47;;;21.61;48.85
17254;BME280;32542;52.832;13.816;2023-04-24T03:07:54;100131.97;;;21.61;48.90
17254;BME280;32542;52.832;13.816;2023-04-24T03:10:58;100129.41;;;21.60;48.91
17254;BME280;32542;52.832;13.816;2023-04-24T03:14:01;100132.06;;;21.60;48.89
17254;BME280;32542;52.832;13.816;2023-04-24T03:17:04;100137.22;;;21.63;48.84
17254;BME280;32542;52.832;13.816;2023-04-24T03:20:08;100127.50;;;21.62;48.83
17254;BME280;32542;52.832;13.816;2023-04-24T03:23:11;100123.97;;;21.61;48.86
17254;BME280;32542;52.832;13.816;2023-04-24T03:26:16;100122.28;;;21.60;48.87
17254;BME280;32542;52.832;13.816;2023-04-24T03:29:33;100116.97;;;21.60;48.85
17254;BME280;32542;52.832;13.816;2023-04-24T03:32:36;100119.69;;;21.59;48.86
17254;BME280;32542;52.832;13.816;2023-04-24T03:35:42;100123.16;;;21.61;48.77
17254;BME280;32542;52.832;13.816;2023-04-24T03:38:46;100120.47;;;21.61;48.89
17254;BME280;32542;52.832;13.816;2023-04-24T03:41:58;100125.81;;;21.61;48.82
17254;BME280;32542;52.832;13.816;2023-04-24T03:45:14;100130.28;;;21.60;48.85
17254;BME280;32542;52.832;13.816;2023-04-24T03:48:21;100132.06;;;21.60;48.80
17254;BME280;32542;52.832;13.816;2023-04-24T03:51:25;100141.81;;;21.61;48.81
17254;BME280;32542;52.832;13.816;2023-04-24T03:54:33;100139.97;;;21.61;48.77
17254;BME280;32542;52.832;13.816;2023-04-24T03:57:37;100137.22;;;21.63;48.63
17254;BME280;32542;52.832;13.816;2023-04-24T04:00:51;100144.25;;;21.64;48.76
17254;BME280;32542;52.832;13.816;2023-04-24T04:04:12;100137.31;;;21.61;48.76
17254;BME280;32542;52.832;13.816;2023-04-24T04:07:16;100131.13;;;21.61;49.00
17254;BME280;32542;52.832;13.816;2023-04-24T04:10:19;100137.41;;;21.60;48.65
17254;BME280;32542;52.832;13.816;2023-04-24T04:13:23;100141.81;;;21.61;48.72
17254;BME280;32542;52.832;13.816;2023-04-24T04:16:26;100120.56;;;21.59;48.75
17254;BME280;32542;52.832;13.816;2023-04-24T04:19:35;100128.47;;;21.61;48.79
17254;BME280;32542;52.832;13.816;2023-04-24T04:22:38;100130.34;;;21.59;48.69
17254;BME280;32542;52.832;13.816;2023-04-24T04:25:47;100126.75;;;21.60;48.78
17254;BME280;32542;52.832;13.816;2023-04-24T04:28:54;100126.75;;;21.60;48.81
17254;BME280;32542;52.832;13.816;2023-04-24T04:31:57;100126.75;;;21.60;48.67
17254;BME280;32542;52.832;13.816;2023-04-24T04:35:02;100131.13;;;21.61;48.67
17254;BME280;32542;52.832;13.816;2023-04-24T04:38:07;100125.72;;;21.62;48.67
17254;BME280;32542;52.832;13.816;2023-04-24T04:41:23;100123.97;;;21.61;48.59
17254;BME280;32542;52.832;13.816;2023-04-24T04:44:28;100125.72;;;21.62;48.63
17254;BME280;32542;52.832;13.816;2023-04-24T04:47:33;100122.28;;;21.60;48.69
17254;BME280;32542;52.832;13.816;2023-04-24T04:50:36;100118.66;;;21.61;48.64
17254;BME280;32542;52.832;13.816;2023-04-24T04:53:41;100109.03;;;21.59;48.61
17254;BME280;32542;52.832;13.816;2023-04-24T04:56:44;100121.41;;;21.60;48.68
17254;BME280;32542;52.832;13.816;2023-04-24T04:59:48;100116.19;;;21.58;48.62
17254;BME280;32542;52.832;13.816;2023-04-24T05:03:03;100118.09;;;21.56;48.69
17254;BME280;32542;52.832;13.816;2023-04-24T05:06:22;100118.09;;;21.56;48.70
17254;BME280;32542;52.832;13.816;2023-04-24T05:09:26;100124.19;;;21.58;48.73
17254;BME280;32542;52.832;13.816;2023-04-24T05:12:36;100124.94;;;21.60;48.66
17254;BME280;32542;52.832;13.816;2023-04-24T05:15:40;100128.47;;;21.61;48.60
17254;BME280;32542;52.832;13.816;2023-04-24T05:18:43;100130.16;;;21.62;48.55
17254;BME280;32542;52.832;13.816;2023-04-24T05:21:49;100133.69;;;21.62;48.51
17254;BME280;32542;52.832;13.816;2023-04-24T05:24:52;100141.69;;;21.62;48.60
17254;BME280;32542;52.832;13.816;2023-04-24T05:28:17;100144.47;;;21.61;48.65
17254;BME280;32542;52.832;13.816;2023-04-24T05:31:31;100144.47;;;21.61;48.52
17254;BME280;32542;52.832;13.816;2023-04-24T05:34:35;100143.59;;;21.60;48.53
17254;BME280;32542;52.832;13.816;2023-04-24T05:37:37;100151.59;;;21.60;48.69
17254;BME280;32542;52.832;13.816;2023-04-24T05:40:41;100147.19;;;21.59;48.59
17254;BME280;32542;52.832;13.816;2023-04-24T05:43:44;100147.19;;;21.59;48.68
17254;BME280;32542;52.832;13.816;2023-04-24T05:46:48;100140.19;;;21.58;48.56
17254;BME280;32542;52.832;13.816;2023-04-24T05:49:52;100147.19;;;21.59;48.57
17254;BME280;32542;52.832;13.816;2023-04-24T05:52:55;100148.06;;;21.60;48.50
17254;BME280;32542;52.832;13.816;2023-04-24T05:56:04;100140.84;;;21.62;48.36
17254;BME280;32542;52.832;13.816;2023-04-24T05:59:07;100148.72;;;21.63;48.47
17254;BME280;32542;52.832;13.816;2023-04-24T06:02:12;100148.72;;;21.63;48.46
17254;BME280;32542;52.832;13.816;2023-04-24T06:05:15;100147.88;;;21.63;48.46
17254;BME280;32542;52.832;13.816;2023-04-24T06:08:19;100140.84;;;21.62;48.55
17254;BME280;32542;52.832;13.816;2023-04-24T06:11:23;100151.50;;;21.62;48.48
17254;BME280;32542;52.832;13.816;2023-04-24T06:14:26;100156.81;;;21.62;48.44
17254;BME280;32542;52.832;13.816;2023-04-24T06:17:50;100147.03;;;21.62;48.50
17254;BME280;32542;52.832;13.816;2023-04-24T06:20:54;100145.28;;;21.61;48.45
17254;BME280;32542;52.832;13.816;2023-04-24T06:23:58;100147.13;;;21.61;48.52
17254;BME280;32542;52.832;13.816;2023-04-24T06:27:01;100146.16;;;21.62;48.54
17254;BME280;32542;52.832;13.816;2023-04-24T06:30:05;100137.31;;;21.61;48.53
17254;BME280;32542;52.832;13.816;2023-04-24T06:33:09;100146.16;;;21.62;48.42
17254;BME280;32542;52.832;13.816;2023-04-24T06:36:21;100155.03;;;21.62;48.44
17254;BME280;32542;52.832;13.816;2023-04-24T06:39:24;100156.72;;;21.63;48.43
17254;BME280;32542;52.832;13.816;2023-04-24T06:42:27;100147.88;;;21.63;48.47
17254;BME280;32542;52.832;13.816;2023-04-24T06:45:30;100148.72;;;21.63;48.44
17254;BME280;32542;52.832;13.816;2023-04-24T06:48:34;100155.03;;;21.62;48.37
17254;BME280;32542;52.832;13.816;2023-04-24T06:51:37;100155.88;;;21.63;48.50
17254;BME280;32542;52.832;13.816;2023-04-24T06:54:41;100147.88;;;21.63;48.40
17254;BME280;32542;52.832;13.816;2023-04-24T06:57:44;100140.84;;;21.62;48.43
17254;BME280;32542;52.832;13.816;2023-04-24T07:00:47;100147.03;;;21.62;48.50
17254;BME280;32542;52.832;13.816;2023-04-24T07:03:51;100146.16;;;21.62;48.45
17254;BME280;32542;52.832;13.816;2023-04-24T07:06:54;100147.13;;;21.61;48.51
17254;BME280;32542;52.832;13.816;2023-04-24T07:09:59;100146.16;;;21.62;48.41
17254;BME280;32542;52.832;13.816;2023-04-24T07:13:02;100147.88;;;21.63;48.31
17254;BME280;32542;52.832;13.816;2023-04-24T07:16:04;100146.91;;;21.64;48.50
17254;BME280;32542;52.832;13.816;2023-04-24T07:19:09;100156.66;;;21.65;48.45
17254;BME280;32542;52.832;13.816;2023-04-24T07:22:34;100147.69;;;21.66;48.41
17254;BME280;32542;52.832;13.816;2023-04-24T07:25:37;100146.81;;;21.65;48.47
17254;BME280;32542;52.832;13.816;2023-04-24T07:28:40;100152.16;;;21.65;48.44
17254;BME280;32542;52.832;13.816;2023-04-24T07:31:43;100147.69;;;21.66;48.49
17254;BME280;32542;52.832;13.816;2023-04-24T07:34:48;100149.41;;;21.67;48.54
17254;BME280;32542;52.832;13.816;2023-04-24T07:37:51;100144.91;;;21.67;48.62
17254;BME280;32542;52.832;13.816;2023-04-24T07:40:54;100145.78;;;21.68;48.71
17254;BME280;32542;52.832;13.816;2023-04-24T07:43:57;100149.31;;;21.68;48.78
17254;BME280;32542;52.832;13.816;2023-04-24T07:47:00;100139.50;;;21.69;48.88
17254;BME280;32542;52.832;13.816;2023-04-24T07:50:05;100149.22;;;21.70;48.82
17254;BME280;32542;52.832;13.816;2023-04-24T07:53:08;100156.25;;;21.71;48.87
17254;BME280;32542;52.832;13.816;2023-04-24T07:56:11;100149.03;;;21.73;48.94
17254;BME280;32542;52.832;13.816;2023-04-24T07:59:14;100145.41;;;21.74;48.99
17254;BME280;32542;52.832;13.816;2023-04-24T08:02:17;100157.78;;;21.75;49.19
17254;BME280;32542;52.832;13.816;2023-04-24T08:05:21;100155.03;;;21.76;49.16
17254;BME280;32542;52.832;13.816;2023-04-24T08:08:27;100152.34;;;21.76;49.09
17254;BME280;32542;52.832;13.816;2023-04-24T08:11:30;100162.06;;;21.77;49.14
17254;BME280;32542;52.832;13.816;2023-04-24T08:14:33;100157.56;;;21.78;49.13
17254;BME280;32542;52.832;13.816;2023-04-24T08:17:36;100155.78;;;21.78;49.23
17254;BME280;32542;52.832;13.816;2023-04-24T08:20:40;100155.69;;;21.80;49.11
17254;BME280;32542;52.832;13.816;2023-04-24T08:23:43;100153.88;;;21.81;49.22
17254;BME280;32542;52.832;13.816;2023-04-24T08:26:46;100149.41;;;21.81;49.01
17254;BME280;32542;52.832;13.816;2023-04-24T08:29:52;100144.06;;;21.81;49.07
17254;BME280;32542;52.832;13.816;2023-04-24T08:32:55;100140.94;;;21.74;47.89
17254;BME280;32542;52.832;13.816;2023-04-24T08:36:00;100129.78;;;21.68;47.49
17254;BME280;32542;52.832;13.816;2023-04-24T08:39:03;100135.28;;;21.51;47.20
17254;BME280;32542;52.832;13.816;2023-04-24T08:42:05;100132.84;;;21.48;46.91
17254;BME280;32542;52.832;13.816;2023-04-24T08:45:10;100144.81;;;21.41;46.65
17254;BME280;32542;52.832;13.816;2023-04-24T08:48:14;100140.13;;;21.44;46.69
17254;BME280;32542;52.832;13.816;2023-04-24T08:51:32;100141.66;;;21.48;46.89
17254;BME280;32542;52.832;13.816;2023-04-24T08:54:35;100142.41;;;21.50;46.96
17254;BME280;32542;52.832;13.816;2023-04-24T08:57:39;100143.97;;;21.54;47.15
17254;BME280;32542;52.832;13.816;2023-04-24T09:00:42;100144.63;;;21.58;47.18
17254;BME280;32542;52.832;13.816;2023-04-24T09:03:48;100141.81;;;21.61;47.45
17254;BME280;32542;52.832;13.816;2023-04-24T09:06:55;100133.69;;;21.62;47.57
17254;BME280;32542;52.832;13.816;2023-04-24T09:09:59;100132.66;;;21.65;47.68
17254;BME280;32542;52.832;13.816;2023-04-24T09:13:02;100137.03;;;21.66;47.68
17254;BME280;32542;52.832;13.816;2023-04-24T09:16:05;100140.44;;;21.68;47.67
17254;BME280;32542;52.832;13.816;2023-04-24T09:19:07;100137.69;;;21.69;47.68
17254;BME280;32542;52.832;13.816;2023-04-24T09:22:12;100145.59;;;21.71;47.68
17254;BME280;32542;52.832;13.816;2023-04-24T09:25:15;100147.31;;;21.72;47.82
17254;BME280;32542;52.832;13.816;2023-04-24T09:28:18;100150.84;;;21.72;47.74
17254;BME280;32542;52.832;13.816;2023-04-24T09:31:21;100148.06;;;21.74;48.01
17254;BME280;32542;52.832;13.816;2023-04-24T09:34:26;100150.66;;;21.75;48.00
17254;BME280;32542;52.832;13.816;2023-04-24T09:37:35;100150.66;;;21.75;48.02
17254;BME280;32542;52.832;13.816;2023-04-24T09:40:39;100145.22;;;21.77;48.20
17254;BME280;32542;52.832;13.816;2023-04-24T09:43:43;100148.81;;;21.76;48.14
17254;BME280;32542;52.832;13.816;2023-04-24T09:46:49;100139.91;;;21.77;48.35
17254;BME280;32542;52.832;13.816;2023-04-24T09:49:57;100143.31;;;21.79;48.32
17254;BME280;32542;52.832;13.816;2023-04-24T09:53:04;100134.34;;;21.80;48.33
17254;BME280;32542;52.832;13.816;2023-04-24T09:56:09;100141.41;;;21.81;48.38
17254;BME280;32542;52.832;13.816;2023-04-24T09:59:15;100144.94;;;21.82;48.57
17254;BME280;32542;52.832;13.816;2023-04-24T10:02:18;100144.88;;;21.83;48.55
17254;BME280;32542;52.832;13.816;2023-04-24T10:05:28;100144.88;;;21.83;48.61
17254;BME280;32542;52.832;13.816;2023-04-24T10:08:34;100151.06;;;21.84;48.69
17254;BME280;32542;52.832;13.816;2023-04-24T10:11:41;100152.75;;;21.85;48.75
17254;BME280;32542;52.832;13.816;2023-04-24T10:14:45;100158.03;;;21.86;48.74
17254;BME280;32542;52.832;13.816;2023-04-24T10:17:50;100158.84;;;21.87;48.87
17254;BME280;32542;52.832;13.816;2023-04-24T10:20:54;100158.78;;;21.88;49.02
17254;BME280;32542;52.832;13.816;2023-04-24T10:24:00;100159.63;;;21.89;48.97
17254;BME280;32542;52.832;13.816;2023-04-24T10:27:05;100155.16;;;21.89;48.93
17254;BME280;32542;52.832;13.816;2023-04-24T10:30:10;100158.56;;;21.91;49.00
17254;BME280;32542;52.832;13.816;2023-04-24T10:33:14;100161.25;;;21.91;49.09
17254;BME280;32542;52.832;13.816;2023-04-24T10:36:17;100156.66;;;21.93;49.19
17254;BME280;32542;52.832;13.816;2023-04-24T10:39:23;100155.84;;;21.93;49.15
17254;BME280;32542;52.832;13.816;2023-04-24T10:42:28;100154.88;;;21.94;49.16
17254;BME280;32542;52.832;13.816;2023-04-24T10:45:31;100153.06;;;21.94;49.25
17254;BME280;32542;52.832;13.816;2023-04-24T10:48:34;100154.75;;;21.95;49.16
17254;BME280;32542;52.832;13.816;2023-04-24T10:52:13;100161.81;;;21.96;48.99
17254;BME280;32542;52.832;13.816;2023-04-24T10:55:39;100159.16;;;21.96;48.76
17254;BME280;32542;52.832;13.816;2023-04-24T10:58:44;100163.72;;;21.94;48.69
17254;BME280;32542;52.832;13.816;2023-04-24T11:01:52;100170.75;;;21.95;48.67
17254;BME280;32542;52.832;13.816;2023-04-24T11:04:55;100166.38;;;21.94;48.67
17254;BME280;32542;52.832;13.816;2023-04-24T11:08:12;100163.72;;;21.94;48.76
17254;BME280;32542;52.832;13.816;2023-04-24T11:11:18;100163.72;;;21.94;48.85
17254;BME280;32542;52.832;13.816;2023-04-24T11:14:22;100158.41;;;21.94;48.90
17254;BME280;32542;52.832;13.816;2023-04-24T11:17:32;100169.06;;;21.94;49.01
17254;BME280;32542;52.832;13.816;2023-04-24T11:20:35;100149.44;;;21.95;48.99
17254;BME280;32542;52.832;13.816;2023-04-24T11:23:38;100144.97;;;21.96;49.12
17254;BME280;32542;52.832;13.816;2023-04-24T11:26:44;100144.09;;;21.95;49.11
17254;BME280;32542;52.832;13.816;2023-04-24T11:29:48;100148.50;;;21.96;49.14
17254;BME280;32542;52.832;13.816;2023-04-24T11:32:51;100148.59;;;21.95;49.22
17254;BME280;32542;52.832;13.816;2023-04-24T11:35:54;100144.09;;;21.95;49.48
17254;BME280;32542;52.832;13.816;2023-04-24T11:38:58;100129.84;;;21.96;49.49
17254;BME280;32542;52.832;13.816;2023-04-24T11:42:03;100145.72;;;21.98;49.68
17254;BME280;32542;52.832;13.816;2023-04-24T11:45:10;100137.72;;;21.98;49.71
17254;BME280;32542;52.832;13.816;2023-04-24T11:48:18;100142.13;;;21.99;49.69
17254;BME280;32542;52.832;13.816;2023-04-24T11:51:24;100141.16;;;22.00;49.71
17254;BME280;32542;52.832;13.816;2023-04-24T11:54:36;100149.06;;;22.01;49.77
17254;BME280;32542;52.832;13.816;2023-04-24T11:57:42;100148.09;;;22.02;49.76
17254;BME280;32542;52.832;13.816;2023-04-24T12:00:46;100140.97;;;22.03;49.74
17254;BME280;32542;52.832;13.816;2023-04-24T12:03:49;100137.34;;;22.04;49.69
17254;BME280;32542;52.832;13.816;2023-04-24T12:06:59;100137.34;;;22.04;49.69
17254;BME280;32542;52.832;13.816;2023-04-24T12:10:02;100141.72;;;22.05;49.75
17254;BME280;32542;52.832;13.816;2023-04-24T12:13:09;100136.28;;;22.06;49.68
17254;BME280;32542;52.832;13.816;2023-04-24T12:16:12;100130.97;;;22.06;49.69
17254;BME280;32542;52.832;13.816;2023-04-24T12:19:18;100129.16;;;22.07;49.69
17254;BME280;32542;52.832;13.816;2023-04-24T12:22:21;100126.50;;;22.07;49.64
17254;BME280;32542;52.832;13.816;2023-04-24T12:25:26;100129.16;;;22.07;49.74
17254;BME280;32542;52.832;13.816;2023-04-24T12:28:36;100132.69;;;22.07;49.67
17254;BME280;32542;52.832;13.816;2023-04-24T12:31:40;100138.03;;;22.07;49.51
17254;BME280;32542;52.832;13.816;2023-04-24T12:34:43;100150.38;;;22.08;49.66
17254;BME280;32542;52.832;13.816;2023-04-24T12:37:46;100173.44;;;22.09;49.57
17254;BME280;32542;52.832;13.816;2023-04-24T12:41:01;100180.47;;;22.10;49.61
17254;BME280;32542;52.832;13.816;2023-04-24T12:44:10;100188.41;;;22.12;49.63
17254;BME280;32542;52.832;13.816;2023-04-24T12:47:13;100189.22;;;22.12;49.50
17254;BME280;32542;52.832;13.816;2023-04-24T12:50:17;100182.19;;;22.11;49.59
17254;BME280;32542;52.832;13.816;2023-04-24T12:53:19;100174.19;;;22.11;49.44
17254;BME280;32542;52.832;13.816;2023-04-24T12:56:22;100168.88;;;22.11;49.52
17254;BME280;32542;52.832;13.816;2023-04-24T12:59:27;100168.88;;;22.11;49.53
17254;BME280;32542;52.832;13.816;2023-04-24T13:02:30;100161.72;;;22.12;49.48
17254;BME280;32542;52.832;13.816;2023-04-24T13:05:33;100156.41;;;22.12;49.54
17254;BME280;32542;52.832;13.816;2023-04-24T13:08:36;100144.88;;;22.11;49.55
17254;BME280;32542;52.832;13.816;2023-04-24T13:11:39;100143.91;;;22.12;49.48
17254;BME280;32542;52.832;13.816;2023-04-24T13:14:43;100146.56;;;22.12;49.44
17254;BME280;32542;52.832;13.816;2023-04-24T13:17:47;100130.56;;;22.12;49.45
17254;BME280;32542;52.832;13.816;2023-04-24T13:20:50;100119.81;;;22.14;49.40
17254;BME280;32542;52.832;13.816;2023-04-24T13:23:52;100103.81;;;22.14;49.40
17254;BME280;32542;52.832;13.816;2023-04-24T13:26:55;100098.38;;;22.15;49.44
17254;BME280;32542;52.832;13.816;2023-04-24T13:30:00;100092.19;;;22.15;49.45
17254;BME280;32542;52.832;13.816;2023-04-24T13:33:03;100092.19;;;22.15;49.48
17254;BME280;32542;52.832;13.816;2023-04-24T13:36:06;100088.66;;;22.14;49.45
17254;BME280;32542;52.832;13.816;2023-04-24T13:39:09;100091.31;;;22.14;49.46
17254;BME280;32542;52.832;13.816;2023-04-24T13:42:12;100091.31;;;22.14;49.51
17254;BME280;32542;52.832;13.816;2023-04-24T13:45:16;100086.00;;;22.14;49.57
17254;BME280;32542;52.832;13.816;2023-04-24T13:48:26;100083.31;;;22.14;49.45
17254;BME280;32542;52.832;13.816;2023-04-24T13:51:29;100086.00;;;22.14;49.53
17254;BME280;32542;52.832;13.816;2023-04-24T13:54:32;100101.06;;;22.15;49.47
17254;BME280;32542;52.832;13.816;2023-04-24T13:57:35;100108.19;;;22.15;49.45
17254;BME280;32542;52.832;13.816;2023-04-24T14:00:39;100116.06;;;22.16;49.51
17254;BME280;32542;52.832;13.816;2023-04-24T14:03:42;100124.94;;;22.17;49.45
17254;BME280;32542;52.832;13.816;2023-04-24T14:06:46;100128.47;;;22.17;49.40
17254;BME280;32542;52.832;13.816;2023-04-24T14:09:49;100130.28;;;22.17;49.41
17254;BME280;32542;52.832;13.816;2023-04-24T14:12:52;100125.81;;;22.17;49.34
17254;BME280;32542;52.832;13.816;2023-04-24T14:15:57;100122.28;;;22.17;49.49
17254;BME280;32542;52.832;13.816;2023-04-24T14:19:00;100117.81;;;22.17;49.35
17254;BME280;32542;52.832;13.816;2023-04-24T14:22:03;100116.94;;;22.17;49.37
17254;BME280;32542;52.832;13.816;2023-04-24T14:25:07;100117.81;;;22.17;49.48
17254;BME280;32542;52.832;13.816;2023-04-24T14:28:10;100112.47;;;22.17;49.42
17254;BME280;32542;52.832;13.816;2023-04-24T14:31:14;100108.00;;;22.18;49.52
17254;BME280;32542;52.832;13.816;2023-04-24T14:34:17;100111.50;;;22.18;49.56
17254;BME280;32542;52.832;13.816;2023-04-24T14:37:20;100110.56;;;22.19;49.96
17254;BME280;32542;52.832;13.816;2023-04-24T14:40:23;100114.16;;;22.18;50.00
17254;BME280;32542;52.832;13.816;2023-04-24T14:43:45;100104.38;;;22.19;50.05
17254;BME280;32542;52.832;13.816;2023-04-24T14:46:50;100099.03;;;22.19;49.91
17254;BME280;32542;52.832;13.816;2023-04-24T14:49:53;100097.22;;;22.19;49.78
17254;BME280;32542;52.832;13.816;2023-04-24T14:52:56;100091.03;;;22.19;49.64
17254;BME280;32542;52.832;13.816;2023-04-24T14:55:59;100087.50;;;22.18;49.80
17254;BME280;32542;52.832;13.816;2023-04-24T14:59:02;100093.69;;;22.19;49.67
17254;BME280;32542;52.832;13.816;2023-04-24T15:02:06;100091.03;;;22.19;49.65
17254;BME280;32542;52.832;13.816;2023-04-24T15:05:15;100090.09;;;22.20;49.73
17254;BME280;32542;52.832;13.816;2023-04-24T15:08:18;100090.97;;;22.20;49.67
17254;BME280;32542;52.832;13.816;2023-04-24T15:11:21;100093.63;;;22.20;49.72
17254;BME280;32542;52.832;13.816;2023-04-24T15:14:24;100095.31;;;22.21;49.68
17254;BME280;32542;52.832;13.816;2023-04-24T15:17:28;100089.88;;;22.23;49.80
17254;BME280;32542;52.832;13.816;2023-04-24T15:20:31;100078.38;;;22.22;49.76
17254;BME280;32542;52.832;13.816;2023-04-24T15:23:36;100083.72;;;22.22;49.64
17254;BME280;32542;52.832;13.816;2023-04-24T15:26:39;100089.03;;;22.22;49.59
17254;BME280;32542;52.832;13.816;2023-04-24T15:29:42;100090.75;;;22.23;49.55
17254;BME280;32542;52.832;13.816;2023-04-24T15:32:46;100089.88;;;22.23;49.55
17254;BME280;32542;52.832;13.816;2023-04-24T15:35:49;100079.19;;;22.23;49.47
17254;BME280;32542;52.832;13.816;2023-04-24T15:38:52;100087.31;;;22.21;49.39
17254;BME280;32542;52.832;13.816;2023-04-24T15:41:55;100096.06;;;22.23;49.31
17254;BME280;32542;52.832;13.816;2023-04-24T15:44:58;100097.88;;;22.23;49.57
17254;BME280;32542;52.832;13.816;2023-04-24T15:48:02;100089.03;;;22.22;49.36
17254;BME280;32542;52.832;13.816;2023-04-24T15:51:05;100101.63;;;22.20;49.34
17254;BME280;32542;52.832;13.816;2023-04-24T15:54:08;100094.56;;;22.19;49.39